Time;durP1;ratioP1;P1;durP2;ratioP2;P2;SDS_P1;SDS_P2;PMS_P1;PMS_P2;Temp;Humidity;BMP_temperature;BMP_pressure;BME280_temperature;BME280_humidity;BME280_pressure;Samples;Min_cycle;Max_cycle;Signal;HPM_P1;HPM_P2
2022/03/26 00:00:26;;;;;;;13.43;7.72;;;4.10;22.40;;;;;;5126432;27;34345;-74
2022/03/26 00:02:52;;;;;;;14.02;7.55;;;4.00;22.50;;;;;;5127671;27;34412;-74
2022/03/26 00:05:19;;;;;;;13.35;7.15;;;3.90;22.80;;;;;;5109843;27;34409;-74
2022/03/26 00:07:45;;;;;;;12.85;6.95;;;3.90;23.00;;;;;;5125941;27;36075;-74
2022/03/26 00:10:12;;;;;;;11.50;6.88;;;3.90;22.80;;;;;;5126942;27;34112;-74
2022/03/26 00:12:40;;;;;;;12.07;7.18;;;3.80;23.00;;;;;;5126197;27;34203;-74
2022/03/26 00:15:07;;;;;;;10.55;6.78;;;3.80;23.00;;;;;;5109196;27;34111;-74
2022/03/26 00:17:34;;;;;;;14.70;6.00;;;3.70;23.00;;;;;;5125527;27;36587;-74
2022/03/26 00:20:00;;;;;;;9.65;6.40;;;3.70;23.20;;;;;;5119245;27;34387;-74
2022/03/26 00:22:26;;;;;;;9.77;6.10;;;3.70;23.00;;;;;;5100537;27;34358;-75
2022/03/26 00:24:52;;;;;;;11.63;6.72;;;3.70;23.20;;;;;;5108119;27;34200;-74
2022/03/26 00:27:17;;;;;;;11.82;6.75;;;3.60;23.50;;;;;;5122856;27;36688;-74
2022/03/26 00:29:44;;;;;;;13.30;7.57;;;3.60;23.40;;;;;;5123527;27;34171;-74
2022/03/26 00:32:10;;;;;;;11.15;6.53;;;3.60;23.60;;;;;;5125896;27;34329;-74
2022/03/26 00:34:37;;;;;;;12.20;6.60;;;3.50;24.00;;;;;;5125888;27;34027;-74
2022/03/26 00:37:03;;;;;;;12.98;7.10;;;3.50;23.70;;;;;;5125059;27;34100;-74
2022/03/26 00:39:29;;;;;;;14.38;6.60;;;3.50;23.90;;;;;;5109134;27;34154;-75
2022/03/26 00:41:55;;;;;;;9.27;6.45;;;3.40;23.90;;;;;;5125889;27;34367;-74
2022/03/26 00:44:21;;;;;;;13.10;6.05;;;3.40;23.90;;;;;;5125890;27;34444;-74
2022/03/26 00:46:47;;;;;;;10.07;6.55;;;3.40;23.90;;;;;;5144257;27;35088;-74
2022/03/26 00:49:14;;;;;;;13.23;6.72;;;3.40;23.90;;;;;;5125925;27;34214;-74
2022/03/26 00:51:40;;;;;;;13.27;7.18;;;3.40;23.80;;;;;;5091469;27;34222;-74
2022/03/26 00:54:10;;;;;;;12.48;7.07;;;3.40;23.80;;;;;;5144911;27;34411;-74
2022/03/26 00:56:37;;;;;;;12.45;6.65;;;3.30;24.00;;;;;;5108966;27;36040;-75
2022/03/26 00:59:04;;;;;;;14.30;6.15;;;3.30;24.00;;;;;;5125793;27;34183;-74
2022/03/26 01:01:31;;;;;;;14.70;6.22;;;3.30;24.30;;;;;;5144157;27;34051;-74
2022/03/26 01:03:58;;;;;;;11.70;6.55;;;3.20;24.10;;;;;;5125971;27;34155;-74
2022/03/26 01:06:25;;;;;;;9.43;6.25;;;3.20;24.00;;;;;;5143865;27;35567;-74
2022/03/26 01:08:51;;;;;;;11.43;6.47;;;3.20;24.10;;;;;;5125331;27;34198;-74
2022/03/26 01:11:18;;;;;;;12.35;5.95;;;3.10;24.10;;;;;;5126195;27;34211;-74
2022/03/26 01:13:45;;;;;;;13.00;7.63;;;3.10;24.10;;;;;;5125123;27;34173;-74
2022/03/26 01:16:13;;;;;;;12.45;6.63;;;3.10;24.30;;;;;;5125504;27;35755;-74
2022/03/26 01:18:40;;;;;;;11.73;6.57;;;3.10;24.30;;;;;;5124708;27;34185;-75
2022/03/26 01:21:06;;;;;;;12.82;6.82;;;3.10;24.50;;;;;;5125250;27;34212;-74
2022/03/26 01:23:32;;;;;;;15.75;6.88;;;3.00;24.40;;;;;;5108763;27;34566;-74
2022/03/26 01:25:58;;;;;;;10.63;6.70;;;3.00;24.60;;;;;;5125105;27;36578;-74
2022/03/26 01:28:26;;;;;;;12.10;6.68;;;2.90;24.70;;;;;;5125469;27;34290;-75
2022/03/26 01:30:52;;;;;;;12.57;6.90;;;2.90;24.80;;;;;;5143650;27;34160;-74
2022/03/26 01:33:18;;;;;;;9.02;6.68;;;2.90;24.60;;;;;;5125383;27;34094;-74
2022/03/26 01:35:44;;;;;;;9.93;6.28;;;2.90;24.70;;;;;;5124613;27;35510;-74
2022/03/26 01:38:11;;;;;;;11.25;6.90;;;2.90;25.10;;;;;;5125033;27;34191;-74
2022/03/26 01:40:38;;;;;;;12.57;5.97;;;2.80;25.60;;;;;;5125496;27;34087;-75
2022/03/26 01:43:06;;;;;;;9.02;6.35;;;2.80;24.80;;;;;;5143667;27;34253;-74
2022/03/26 01:45:32;;;;;;;9.15;6.00;;;2.80;24.90;;;;;;5143702;27;34338;-74
2022/03/26 01:47:59;;;;;;;10.48;6.22;;;2.80;25.40;;;;;;5127117;27;34394;-74
2022/03/26 01:50:27;;;;;;;10.20;6.25;;;2.80;25.20;;;;;;5128285;27;34335;-74
2022/03/26 01:52:53;;;;;;;12.80;6.32;;;2.70;25.40;;;;;;5112112;27;34507;-74
2022/03/26 01:55:19;;;;;;;14.65;6.82;;;2.70;25.30;;;;;;5128601;27;35507;-75
2022/03/26 01:57:45;;;;;;;17.27;7.53;;;2.70;25.40;;;;;;5110871;27;34096;-74
2022/03/26 02:00:12;;;;;;;12.73;6.20;;;2.70;25.70;;;;;;5128546;27;34654;-74
2022/03/26 02:02:46;;;;;;;19.88;7.10;;;2.60;25.40;;;;;;5111011;27;34403;-75
2022/03/26 02:05:14;;;;;;;12.20;7.22;;;2.60;25.80;;;;;;5128608;27;35478;-74
2022/03/26 02:07:42;;;;;;;11.25;6.65;;;2.60;25.70;;;;;;5108634;27;34274;-74
2022/03/26 02:10:10;;;;;;;12.40;7.25;;;2.60;25.30;;;;;;5128356;27;34183;-74
2022/03/26 02:12:37;;;;;;;12.85;6.75;;;2.60;25.40;;;;;;5128525;27;34704;-74
2022/03/26 02:15:04;;;;;;;11.50;7.28;;;2.50;25.70;;;;;;5111282;27;35678;-75
2022/03/26 02:17:31;;;;;;;15.32;7.45;;;2.50;25.80;;;;;;5128352;27;34157;-74
2022/03/26 02:19:58;;;;;;;14.30;6.80;;;2.50;25.70;;;;;;5128165;27;34174;-74
2022/03/26 02:22:26;;;;;;;13.43;7.22;;;2.50;26.00;;;;;;5128671;27;34211;-74
2022/03/26 02:24:52;;;;;;;11.90;6.63;;;2.40;26.00;;;;;;5128252;27;36369;-75
2022/03/26 02:27:19;;;;;;;13.27;6.68;;;2.40;25.70;;;;;;5111336;27;34270;-74
2022/03/26 02:29:44;;;;;;;23.33;6.22;;;2.40;25.70;;;;;;5128007;27;34187;-75
2022/03/26 02:32:10;;;;;;;14.35;7.13;;;2.40;25.60;;;;;;5128214;27;34340;-74
2022/03/26 02:34:38;;;;;;;12.90;6.40;;;2.30;25.50;;;;;;5110330;27;36697;-75
2022/03/26 02:37:04;;;;;;;13.27;7.10;;;2.30;25.80;;;;;;5128026;27;34332;-74
2022/03/26 02:39:30;;;;;;;12.57;6.65;;;2.30;25.80;;;;;;5094117;27;34192;-74
2022/03/26 02:41:56;;;;;;;12.25;6.72;;;2.20;26.10;;;;;;5127875;27;34187;-74
2022/03/26 02:44:22;;;;;;;9.43;5.65;;;2.20;26.10;;;;;;5128244;27;35679;-74
2022/03/26 02:46:48;;;;;;;12.75;7.28;;;2.20;26.00;;;;;;5127569;27;34145;-74
2022/03/26 02:49:15;;;;;;;11.73;7.25;;;2.20;26.90;;;;;;5127744;27;34177;-74
2022/03/26 02:51:42;;;;;;;13.32;6.80;;;2.10;26.20;;;;;;5146296;27;34188;-74
2022/03/26 02:54:18;;;;;;;11.32;6.70;;;2.10;26.40;;;;;;5127732;27;36112;-74
2022/03/26 02:56:48;;;;;;;11.45;6.55;;;2.10;26.40;;;;;;5127496;27;34198;-75
2022/03/26 02:59:15;;;;;;;12.38;7.03;;;2.00;26.80;;;;;;5109539;27;34195;-74
2022/03/26 03:01:41;;;;;;;12.82;6.85;;;2.00;26.30;;;;;;5127638;27;34511;-74
2022/03/26 03:04:08;;;;;;;14.68;7.50;;;2.00;26.30;;;;;;5145969;27;35413;-74
2022/03/26 03:06:34;;;;;;;12.05;6.55;;;2.00;26.20;;;;;;5127200;27;34268;-74
2022/03/26 03:09:02;;;;;;;11.23;7.18;;;1.90;26.20;;;;;;5145595;27;34488;-74
2022/03/26 03:11:28;;;;;;;12.55;7.45;;;1.90;26.10;;;;;;5127875;27;34285;-74
2022/03/26 03:13:54;;;;;;;12.30;7.20;;;1.90;26.00;;;;;;5127308;27;35685;-74
2022/03/26 03:16:20;;;;;;;11.38;7.15;;;1.90;26.10;;;;;;5110423;27;34364;-75
2022/03/26 03:18:46;;;;;;;13.27;6.43;;;1.90;26.40;;;;;;5145207;27;34425;-75
2022/03/26 03:21:12;;;;;;;11.43;6.75;;;1.80;26.60;;;;;;5110328;27;34222;-75
2022/03/26 03:23:37;;;;;;;13.20;6.43;;;1.80;26.60;;;;;;5126798;27;35813;-75
2022/03/26 03:26:04;;;;;;;11.35;6.30;;;1.80;26.50;;;;;;5110276;27;34088;-74
2022/03/26 03:28:30;;;;;;;13.50;7.10;;;1.80;26.50;;;;;;5145405;27;34266;-74
2022/03/26 03:30:56;;;;;;;11.10;6.47;;;1.80;26.60;;;;;;5126977;27;34186;-75
2022/03/26 03:33:22;;;;;;;13.00;6.57;;;1.70;26.20;;;;;;5145910;27;35016;-75
2022/03/26 03:35:49;;;;;;;11.68;6.60;;;1.70;26.50;;;;;;5145527;27;34267;-75
2022/03/26 03:38:15;;;;;;;10.68;6.28;;;1.60;26.50;;;;;;5127265;27;34236;-75
2022/03/26 03:40:41;;;;;;;13.65;7.00;;;1.60;26.70;;;;;;5145394;27;34122;-75
2022/03/26 03:43:07;;;;;;;12.68;6.43;;;1.60;26.70;;;;;;5126954;27;35635;-75
2022/03/26 03:45:34;;;;;;;12.88;6.38;;;1.60;26.40;;;;;;5127522;27;34266;-75
2022/03/26 03:48:00;;;;;;;17.83;7.13;;;1.50;26.70;;;;;;5127618;27;34187;-75
2022/03/26 03:50:26;;;;;;;13.20;6.97;;;1.50;26.90;;;;;;5146082;27;34127;-75
2022/03/26 03:52:53;;;;;;;10.95;6.18;;;1.50;26.80;;;;;;5110257;27;35502;-75
2022/03/26 03:55:19;;;;;;;13.23;7.07;;;1.50;26.60;;;;;;5145971;27;34184;-75
2022/03/26 03:57:45;;;;;;;11.48;6.50;;;1.50;26.50;;;;;;5110303;27;34262;-75
2022/03/26 04:00:13;;;;;;;17.23;6.97;;;1.40;26.70;;;;;;5145923;27;34418;-75
2022/03/26 04:02:40;;;;;;;12.63;6.80;;;1.40;27.00;;;;;;5110008;27;35625;-75
2022/03/26 04:05:09;;;;;;;11.57;6.35;;;1.40;27.10;;;;;;5127847;27;34301;-75
2022/03/26 04:07:38;;;;;;;15.95;6.32;;;1.40;27.10;;;;;;5127341;27;34181;-75
2022/03/26 04:10:07;;;;;;;10.57;5.97;;;1.30;27.30;;;;;;5146806;27;34266;-75
2022/03/26 04:12:34;;;;;;;10.38;5.47;;;1.30;27.10;;;;;;5110742;27;36151;-75
2022/03/26 04:15:00;;;;;;;13.85;6.68;;;1.30;27.00;;;;;;5110631;27;34162;-75
2022/03/26 04:17:26;;;;;;;11.27;6.15;;;1.30;26.90;;;;;;5126883;27;34279;-76
2022/03/26 04:19:53;;;;;;;10.27;6.32;;;1.30;26.80;;;;;;5110183;27;34049;-76
2022/03/26 04:22:20;;;;;;;9.15;5.93;;;1.20;26.80;;;;;;5127016;27;35861;-76
2022/03/26 04:24:46;;;;;;;12.20;6.20;;;1.20;27.10;;;;;;5126960;27;34173;-76
2022/03/26 04:27:12;;;;;;;12.48;5.85;;;1.20;27.40;;;;;;5127197;27;34205;-75
2022/03/26 04:29:39;;;;;;;10.63;6.43;;;1.10;27.80;;;;;;5110389;27;34339;-76
2022/03/26 04:32:05;;;;;;;12.30;6.45;;;1.10;27.80;;;;;;5127227;27;35570;-76
2022/03/26 04:34:31;;;;;;;10.00;5.68;;;1.00;27.50;;;;;;5128110;27;34266;-76
2022/03/26 04:36:57;;;;;;;13.32;6.40;;;1.00;27.20;;;;;;5147415;27;34553;-76
2022/03/26 04:39:23;;;;;;;11.93;6.68;;;1.10;27.30;;;;;;5146803;27;34046;-76
2022/03/26 04:41:49;;;;;;;11.82;6.10;;;1.00;27.30;;;;;;5111236;27;35489;-76
2022/03/26 04:44:15;;;;;;;15.80;6.95;;;1.00;27.50;;;;;;5128081;27;34079;-76
2022/03/26 04:46:41;;;;;;;11.07;6.63;;;1.00;27.40;;;;;;5128711;27;34130;-76
2022/03/26 04:49:07;;;;;;;11.73;5.78;;;1.00;27.50;;;;;;5129219;27;34123;-76
2022/03/26 04:51:33;;;;;;;11.60;6.38;;;0.90;27.40;;;;;;5147609;27;35294;-76
2022/03/26 04:53:59;;;;;;;15.02;6.55;;;0.90;27.40;;;;;;5128603;27;34209;-76
2022/03/26 04:56:25;;;;;;;14.07;6.60;;;0.90;27.60;;;;;;5095435;27;34080;-76
2022/03/26 04:58:53;;;;;;;12.35;5.97;;;0.90;27.90;;;;;;5111384;27;34454;-77
2022/03/26 05:01:19;;;;;;;12.57;6.28;;;0.90;27.80;;;;;;5129682;27;35990;-77
2022/03/26 05:03:45;;;;;;;11.65;6.70;;;0.80;27.50;;;;;;5128987;27;34283;-77
2022/03/26 05:06:10;;;;;;;10.85;5.88;;;0.80;27.20;;;;;;5111229;27;34181;-77
2022/03/26 05:08:36;;;;;;;16.52;6.93;;;0.80;27.30;;;;;;5125212;27;34485;-77
2022/03/26 05:11:02;;;;;;;12.93;6.63;;;0.80;27.60;;;;;;5107448;27;35727;-77
2022/03/26 05:13:28;;;;;;;10.98;6.20;;;0.70;27.40;;;;;;5125405;27;34369;-77
2022/03/26 05:15:54;;;;;;;11.95;6.10;;;0.70;27.40;;;;;;5126539;27;34502;-77
2022/03/26 05:18:20;;;;;;;13.95;6.28;;;0.70;27.80;;;;;;5110727;27;34112;-77
2022/03/26 05:20:46;;;;;;;13.02;6.28;;;0.70;28.10;;;;;;5109546;27;35505;-77
2022/03/26 05:23:12;;;;;;;11.60;6.47;;;0.60;28.00;;;;;;5112673;27;34097;-77
2022/03/26 05:25:38;;;;;;;11.27;6.00;;;0.60;27.90;;;;;;5131097;27;34236;-77
2022/03/26 05:28:04;;;;;;;11.13;5.93;;;0.60;28.40;;;;;;5130896;27;34236;-77
2022/03/26 05:30:30;;;;;;;11.65;6.15;;;0.60;28.50;;;;;;5129735;27;35515;-77
2022/03/26 05:32:56;;;;;;;13.30;7.15;;;0.60;28.60;;;;;;5112786;27;34313;-77
2022/03/26 05:35:22;;;;;;;11.82;6.07;;;0.60;28.10;;;;;;5130020;27;34190;-77
2022/03/26 05:37:49;;;;;;;11.32;5.93;;;0.60;27.60;;;;;;5112934;27;34467;-77
2022/03/26 05:40:18;;;;;;;16.17;6.93;;;0.60;27.70;;;;;;5148380;27;34558;-77
2022/03/26 05:42:46;;;;;;;12.27;6.75;;;0.60;27.90;;;;;;5147934;27;34253;-77
2022/03/26 05:45:12;;;;;;;14.75;6.15;;;0.60;28.10;;;;;;5113205;27;34322;-77
2022/03/26 05:47:39;;;;;;;12.60;5.68;;;0.60;27.90;;;;;;5148895;27;34000;-77
2022/03/26 05:50:07;;;;;;;11.68;6.25;;;0.70;28.20;;;;;;5148984;27;34238;-77
2022/03/26 05:52:33;;;;;;;11.23;6.15;;;0.70;28.50;;;;;;5112715;27;34206;-77
2022/03/26 05:54:59;;;;;;;12.52;5.97;;;0.70;28.30;;;;;;5129553;27;34201;-77
2022/03/26 05:57:25;;;;;;;10.68;6.53;;;0.70;27.90;;;;;;5112637;27;34527;-76
2022/03/26 05:59:51;;;;;;;13.45;6.03;;;0.70;27.80;;;;;;5129167;27;35511;-76
2022/03/26 06:02:17;;;;;;;13.65;5.45;;;0.80;27.80;;;;;;5130013;27;34156;-77
2022/03/26 06:04:44;;;;;;;14.38;7.28;;;0.90;27.90;;;;;;5129844;27;34341;-77
2022/03/26 06:07:10;;;;;;;13.30;6.55;;;0.90;27.90;;;;;;5147739;27;34294;-77
2022/03/26 06:09:37;;;;;;;10.77;5.97;;;1.10;28.10;;;;;;5129253;27;35662;-77
2022/03/26 06:12:04;;;;;;;11.75;6.57;;;1.40;28.40;;;;;;5147946;27;34008;-76
2022/03/26 06:14:30;;;;;;;17.50;7.95;;;1.70;27.30;;;;;;5130020;27;34200;-76
2022/03/26 06:16:56;;;;;;;17.60;7.00;;;2.00;26.80;;;;;;5129706;27;34120;-77
2022/03/26 06:19:22;;;;;;;14.13;7.15;;;2.30;26.50;;;;;;5135408;27;35270;-77
2022/03/26 06:21:48;;;;;;;14.10;6.82;;;2.60;25.90;;;;;;5144455;27;34415;-77
2022/03/26 06:24:14;;;;;;;14.00;6.63;;;2.80;26.00;;;;;;5130007;27;34465;-77
2022/03/26 06:26:43;;;;;;;14.25;7.45;;;3.10;24.90;;;;;;5149064;27;34472;-77
2022/03/26 06:29:10;;;;;;;14.65;7.20;;;3.40;24.60;;;;;;5149680;27;34302;-77
2022/03/26 06:31:36;;;;;;;17.65;6.97;;;3.80;24.20;;;;;;5149885;27;34305;-77
2022/03/26 06:34:02;;;;;;;13.00;6.80;;;4.20;23.50;;;;;;5130722;27;34207;-77
2022/03/26 06:36:28;;;;;;;16.65;7.10;;;4.60;22.80;;;;;;5133569;27;33799;-77
2022/03/26 06:38:55;;;;;;;11.80;6.75;;;5.00;22.20;;;;;;5131901;27;35651;-77
2022/03/26 06:41:20;;;;;;;17.80;7.72;;;5.40;21.70;;;;;;5132092;27;34213;-77
2022/03/26 06:43:46;;;;;;;11.15;7.05;;;5.80;21.20;;;;;;5131538;27;34103;-77
2022/03/26 06:46:12;;;;;;;13.85;7.20;;;6.20;20.60;;;;;;5116070;27;34003;-77
2022/03/26 06:48:39;;;;;;;17.23;7.97;;;6.40;20.10;;;;;;5129508;27;35511;-77
2022/03/26 06:51:06;;;;;;;14.30;7.95;;;6.70;20.00;;;;;;5128884;27;34246;-76
2022/03/26 06:53:33;;;;;;;16.70;7.38;;;6.90;19.90;;;;;;5128621;27;34289;-76
2022/03/26 06:56:00;;;;;;;13.70;7.70;;;7.10;19.70;;;;;;5128833;27;34322;-76
2022/03/26 06:58:25;;;;;;;15.10;7.80;;;7.40;19.60;;;;;;5129330;27;36041;-76
2022/03/26 07:00:52;;;;;;;11.57;7.68;;;7.50;19.30;;;;;;5111658;27;34174;-76
2022/03/26 07:03:18;;;;;;;13.50;7.82;;;7.80;19.30;;;;;;5112665;27;34022;-76
2022/03/26 07:05:44;;;;;;;13.52;7.38;;;8.00;19.20;;;;;;5128924;27;34514;-76
2022/03/26 07:08:10;;;;;;;13.65;8.23;;;8.10;19.10;;;;;;5111664;27;35684;-75
2022/03/26 07:10:39;;;;;;;18.20;8.60;;;8.30;19.10;;;;;;5128276;27;34177;-75
2022/03/26 07:13:06;;;;;;;18.05;8.40;;;8.50;18.90;;;;;;5128531;27;34182;-75
2022/03/26 07:15:32;;;;;;;16.00;7.60;;;8.60;18.70;;;;;;5110775;27;34383;-75
2022/03/26 07:17:59;;;;;;;15.50;8.63;;;8.70;18.80;;;;;;5127689;27;35931;-75
2022/03/26 07:20:25;;;;;;;17.50;8.05;;;8.80;18.70;;;;;;5127729;27;34266;-75
2022/03/26 07:22:51;;;;;;;15.35;9.05;;;9.00;18.70;;;;;;5127835;27;34332;-75
2022/03/26 07:25:17;;;;;;;19.13;9.13;;;9.20;18.70;;;;;;5111264;27;34198;-75
2022/03/26 07:27:43;;;;;;;13.38;7.95;;;9.30;18.60;;;;;;5127844;27;35486;-75
2022/03/26 07:30:10;;;;;;;16.35;8.68;;;9.50;18.50;;;;;;5128122;27;34336;-75
2022/03/26 07:32:36;;;;;;;15.27;9.15;;;9.60;18.40;;;;;;5129318;27;34290;-75
2022/03/26 07:35:03;;;;;;;13.27;8.32;;;9.70;18.40;;;;;;5129121;27;34047;-75
2022/03/26 07:37:29;;;;;;;17.02;9.18;;;9.80;18.30;;;;;;5147472;27;34075;-75
2022/03/26 07:39:55;;;;;;;15.32;9.10;;;10.00;18.40;;;;;;5127440;27;34211;-74
2022/03/26 07:42:21;;;;;;;18.77;8.88;;;10.10;18.60;;;;;;5127556;27;34294;-75
2022/03/26 07:44:47;;;;;;;19.48;9.45;;;10.00;18.60;;;;;;5126507;27;34277;-75
2022/03/26 07:47:13;;;;;;;17.05;9.05;;;9.90;18.50;;;;;;5126988;27;36190;-75
2022/03/26 07:49:39;;;;;;;16.10;9.43;;;10.00;18.80;;;;;;5127053;27;34025;-75
2022/03/26 07:52:05;;;;;;;14.63;9.52;;;10.00;19.00;;;;;;5145556;27;34306;-75
2022/03/26 07:54:31;;;;;;;17.85;9.80;;;10.00;19.00;;;;;;5093124;27;34180;-74
2022/03/26 07:57:16;;;;;;;20.23;10.13;;;10.00;19.10;;;;;;5125439;27;36268;-74
2022/03/26 07:59:41;;;;;;;16.15;9.82;;;10.00;19.30;;;;;;5107521;27;34322;-75
2022/03/26 08:02:07;;;;;;;15.95;10.00;;;10.20;19.50;;;;;;5106796;27;34391;-75
2022/03/26 08:04:35;;;;;;;19.63;10.50;;;10.40;19.50;;;;;;5073772;27;34362;-74
2022/03/26 08:07:01;;;;;;;22.27;9.73;;;10.50;19.20;;;;;;5085723;27;36480;-75
2022/03/26 08:09:27;;;;;;;18.42;9.95;;;10.70;19.20;;;;;;5118780;27;34167;-75
2022/03/26 08:11:53;;;;;;;16.45;8.77;;;10.90;19.20;;;;;;5127047;27;34102;-76
2022/03/26 08:14:19;;;;;;;19.98;9.98;;;11.00;19.10;;;;;;5146456;27;34380;-75
2022/03/26 08:16:45;;;;;;;16.95;9.80;;;11.30;19.10;;;;;;5161206;27;35774;-75
2022/03/26 08:19:10;;;;;;;17.90;9.68;;;11.40;18.90;;;;;;5146032;27;34382;-75
2022/03/26 08:21:37;;;;;;;21.33;8.93;;;11.40;18.70;;;;;;5146785;27;34116;-75
2022/03/26 08:24:03;;;;;;;17.25;9.40;;;11.60;19.10;;;;;;5145894;27;34042;-75
2022/03/26 08:26:29;;;;;;;16.63;9.48;;;11.80;18.40;;;;;;5162681;27;36618;-75
2022/03/26 08:28:58;;;;;;;17.35;9.30;;;12.10;18.10;;;;;;5162890;27;34536;-75
2022/03/26 08:31:27;;;;;;;17.33;9.88;;;12.40;18.00;;;;;;5133581;27;34201;-75
2022/03/26 08:33:53;;;;;;;17.05;9.63;;;12.80;17.40;;;;;;5144687;27;34271;-75
2022/03/26 08:36:19;;;;;;;18.95;9.27;;;13.10;17.60;;;;;;5146229;27;35876;-75
2022/03/26 08:38:47;;;;;;;19.73;9.98;;;13.50;17.40;;;;;;5111754;27;34299;-76
2022/03/26 08:41:14;;;;;;;17.20;10.05;;;13.80;17.10;;;;;;5111902;27;34435;-75
2022/03/26 08:43:40;;;;;;;19.02;10.50;;;14.30;17.00;;;;;;5128541;27;34146;-75
2022/03/26 08:46:06;;;;;;;17.75;9.73;;;14.70;16.70;;;;;;5146218;27;34303;-76
2022/03/26 08:48:32;;;;;;;15.55;10.18;;;15.00;16.70;;;;;;5162918;27;34298;-75
2022/03/26 08:50:59;;;;;;;18.58;9.98;;;15.40;15.50;;;;;;5128066;27;34259;-75
2022/03/26 08:53:25;;;;;;;19.75;10.27;;;15.70;15.30;;;;;;5128117;27;34468;-75
2022/03/26 08:55:51;;;;;;;21.38;10.63;;;15.90;14.70;;;;;;5145585;27;34125;-76
2022/03/26 08:58:18;;;;;;;24.25;10.65;;;16.20;14.50;;;;;;5131023;27;34268;-75
2022/03/26 09:00:47;;;;;;;20.92;10.48;;;16.50;12.90;;;;;;5131968;27;34058;-76
2022/03/26 09:03:15;;;;;;;19.35;10.60;;;16.70;13.50;;;;;;5115169;27;34216;-75
2022/03/26 09:05:41;;;;;;;19.40;10.10;;;16.90;13.90;;;;;;5130889;27;35531;-75
2022/03/26 09:08:07;;;;;;;21.80;10.45;;;17.10;12.70;;;;;;5131486;27;34124;-76
2022/03/26 09:10:33;;;;;;;17.30;9.68;;;17.20;12.30;;;;;;5150914;27;35120;-75
2022/03/26 09:12:59;;;;;;;22.60;11.02;;;17.30;12.40;;;;;;5114747;27;34589;-76
2022/03/26 09:15:25;;;;;;;17.23;9.52;;;17.50;12.30;;;;;;5131371;27;35565;-76
2022/03/26 09:17:51;;;;;;;19.38;10.30;;;17.60;12.00;;;;;;5148577;27;34071;-75
2022/03/26 09:20:16;;;;;;;19.10;10.00;;;17.60;11.80;;;;;;5131438;27;33999;-76
2022/03/26 09:22:42;;;;;;;19.67;9.35;;;17.70;11.60;;;;;;5130756;27;34399;-76
2022/03/26 09:25:08;;;;;;;19.00;10.40;;;17.80;10.90;;;;;;5131099;27;34449;-75
2022/03/26 09:27:34;;;;;;;23.02;10.73;;;17.90;11.10;;;;;;5131369;27;34131;-76
2022/03/26 09:30:00;;;;;;;17.42;9.57;;;17.90;10.50;;;;;;5131640;27;34162;-76
2022/03/26 09:32:26;;;;;;;22.02;10.38;;;17.90;10.50;;;;;;5131401;27;34485;-75
2022/03/26 09:34:52;;;;;;;19.75;10.40;;;18.10;10.40;;;;;;5148999;27;35157;-75
2022/03/26 09:37:18;;;;;;;17.58;9.88;;;18.40;10.20;;;;;;5131848;27;34197;-76
2022/03/26 09:39:44;;;;;;;18.58;9.52;;;18.50;9.60;;;;;;5165867;27;34229;-75
2022/03/26 09:42:11;;;;;;;16.50;9.10;;;18.60;8.10;;;;;;5165937;27;34016;-75
2022/03/26 09:44:37;;;;;;;17.95;9.20;;;18.60;9.00;;;;;;5131173;27;36811;-75
2022/03/26 09:47:05;;;;;;;20.27;10.18;;;18.80;8.90;;;;;;5114071;27;34083;-76
2022/03/26 09:49:32;;;;;;;22.80;10.27;;;18.80;7.50;;;;;;5150111;27;34214;-75
2022/03/26 09:51:59;;;;;;;17.00;9.52;;;18.90;8.30;;;;;;5131318;27;34111;-75
2022/03/26 09:54:26;;;;;;;22.63;9.55;;;18.80;6.90;;;;;;5149484;27;35051;-75
2022/03/26 09:56:52;;;;;;;18.10;9.30;;;19.00;7.20;;;;;;5164834;27;34127;-75
2022/03/26 09:59:21;;;;;;;15.90;8.68;;;19.10;7.80;;;;;;5149524;27;34201;-75
2022/03/26 10:01:48;;;;;;;20.20;9.82;;;19.20;6.10;;;;;;5165376;27;34103;-75
2022/03/26 10:04:17;;;;;;;15.90;8.73;;;19.30;7.40;;;;;;5138870;27;34423;-76
2022/03/26 10:06:53;;;;;;;19.23;9.27;;;19.40;6.10;;;;;;5124353;27;34184;-75
2022/03/26 10:09:39;;;;;;;18.05;9.65;;;19.50;2.40;;;;;;5121595;27;34173;-76
2022/03/26 10:12:08;;;;;;;16.98;9.50;;;19.50;1.40;;;;;;5145312;27;34137;-75
2022/03/26 10:14:38;;;;;;;20.35;10.15;;;19.50;5.90;;;;;;5118713;27;34901;-76
2022/03/26 10:17:09;;;;;;;19.08;9.80;;;19.60;5.40;;;;;;5109786;27;34176;-75
2022/03/26 10:19:36;;;;;;;18.27;9.57;;;19.70;5.20;;;;;;5153955;27;34104;-76
2022/03/26 10:22:02;;;;;;;17.58;9.63;;;19.80;5.60;;;;;;5112939;27;34085;-76
2022/03/26 10:24:28;;;;;;;15.85;9.13;;;20.00;2.40;;;;;;5131011;27;35004;-76
2022/03/26 10:26:58;;;;;;;19.35;9.93;;;20.00;5.80;;;;;;5165017;27;34288;-76
2022/03/26 10:29:24;;;;;;;19.60;10.35;;;20.10;5.80;;;;;;5165782;27;34129;-76
2022/03/26 10:34:31;;;;;;;19.38;10.48;;;20.20;4.50;;;;;;5132333;27;34710;-76
2022/03/26 10:37:01;;;;;;;14.88;9.13;;;20.20;4.90;;;;;;5129684;27;34594;-75
2022/03/26 10:39:29;;;;;;;17.58;10.13;;;20.20;4.90;;;;;;5113307;27;34089;-75
2022/03/26 10:41:56;;;;;;;18.27;10.10;;;20.40;4.30;;;;;;5149018;27;34167;-76
2022/03/26 10:44:25;;;;;;;17.38;9.43;;;20.40;4.30;;;;;;5148259;27;34838;-76
2022/03/26 10:46:54;;;;;;;19.63;9.23;;;20.40;1.00;;;;;;5147846;27;34486;-76
2022/03/26 10:49:27;;;;;;;20.23;9.93;;;20.50;3.70;;;;;;5113073;27;34228;-77
2022/03/26 10:51:54;;;;;;;17.33;9.68;;;20.60;3.40;;;;;;5164090;27;34278;-76
2022/03/26 10:54:28;;;;;;;20.73;9.73;;;20.50;3.90;;;;;;5164879;27;36526;-76
2022/03/26 10:56:56;;;;;;;17.83;9.23;;;20.50;1.00;;;;;;5146871;27;34158;-76
2022/03/26 10:59:23;;;;;;;18.55;9.15;;;20.70;4.00;;;;;;5148252;27;34134;-76
2022/03/26 11:01:49;;;;;;;21.25;9.95;;;20.80;3.40;;;;;;5163761;27;34196;-76
2022/03/26 11:04:15;;;;;;;17.92;10.00;;;20.80;3.60;;;;;;5146086;27;35564;-76
2022/03/26 11:06:41;;;;;;;18.50;10.43;;;20.80;3.60;;;;;;5128297;27;34311;-77
2022/03/26 11:09:08;;;;;;;18.15;9.90;;;20.80;3.20;;;;;;5128070;27;34265;-76
2022/03/26 11:11:36;;;;;;;17.35;9.18;;;20.80;3.30;;;;;;5146926;27;34139;-76
2022/03/26 11:14:07;;;;;;;19.63;10.70;;;20.80;2.40;;;;;;5163226;27;35637;-77
2022/03/26 11:17:02;;;;;;;18.13;9.93;;;20.90;1.00;;;;;;5128236;27;34079;-77
2022/03/26 11:19:58;;;;;;;18.02;9.93;;;21.00;1.00;;;;;;5110355;27;34324;-76
2022/03/26 11:22:42;;;;;;;17.70;9.80;;;21.10;1.00;;;;;;5162861;27;34078;-77
2022/03/26 11:25:38;;;;;;;18.75;10.38;;;21.20;1.00;;;;;;5162185;27;37039;-76
2022/03/26 11:28:22;;;;;;;18.77;10.57;;;21.30;1.00;;;;;;5138435;27;34224;-76
2022/03/26 11:31:06;;;;;;;22.85;10.75;;;21.60;1.00;;;;;;5123726;27;34107;-76
2022/03/26 11:33:35;;;;;;;18.92;10.65;;;21.60;1.00;;;;;;5145849;27;34258;-76
2022/03/26 11:36:04;;;;;;;17.65;10.02;;;21.60;1.00;;;;;;5119365;27;34488;-77
2022/03/26 11:38:31;;;;;;;19.50;11.20;;;21.50;1.20;;;;;;5127743;27;34354;-76
2022/03/26 11:41:06;;;;;;;20.90;10.50;;;21.60;2.30;;;;;;5127546;27;34311;-76
2022/03/26 11:43:50;;;;;;;17.55;10.73;;;21.70;1.00;;;;;;5127244;27;34521;-76
2022/03/26 11:52:19;;;;;;;17.98;10.73;;;21.90;1.00;;;;;;5130382;27;34117;-75
2022/03/26 11:54:47;;;;;;;23.48;11.18;;;21.90;1.00;;;;;;5109825;27;34355;-75
2022/03/26 11:57:19;;;;;;;19.08;11.02;;;21.90;2.00;;;;;;5126636;27;36183;-77
2022/03/26 11:59:47;;;;;;;19.08;11.07;;;22.00;1.00;;;;;;5109806;27;34173;-76
2022/03/26 12:02:18;;;;;;;21.30;11.25;;;22.10;1.90;;;;;;5127535;27;34382;-77
2022/03/26 12:04:49;;;;;;;17.63;10.45;;;22.10;1.00;;;;;;5110403;27;34547;-76
2022/03/26 12:07:16;;;;;;;19.08;10.40;;;22.00;1.00;;;;;;5109348;27;35846;-76
2022/03/26 12:09:42;;;;;;;20.10;11.75;;;22.00;1.50;;;;;;5127783;27;34179;-76
2022/03/26 12:12:17;;;;;;;23.95;11.57;;;22.00;1.30;;;;;;5128339;27;33986;-77
2022/03/26 12:15:18;;;;;;;21.95;11.90;;;21.90;1.00;;;;;;5111488;27;34495;-76
2022/03/26 12:17:47;;;;;;;18.15;11.07;;;21.80;1.00;;;;;;5113967;27;36652;-76
2022/03/26 12:20:43;;;;;;;21.25;10.73;;;21.70;1.00;;;;;;5110906;27;34036;-76
2022/03/26 12:23:31;;;;;;;17.05;10.57;;;21.80;1.00;;;;;;5129348;27;34288;-77
2022/03/26 12:26:03;;;;;;;16.35;10.27;;;22.00;1.00;;;;;;5127899;27;34178;-75
2022/03/26 12:28:33;;;;;;;15.93;9.75;;;22.00;1.00;;;;;;5127612;27;36655;-75
2022/03/26 12:31:04;;;;;;;14.13;8.95;;;22.20;1.00;;;;;;5163020;27;34051;-76
2022/03/26 12:33:39;;;;;;;19.30;9.75;;;22.10;1.00;;;;;;5145994;27;34377;-77
2022/03/26 12:36:06;;;;;;;17.10;9.50;;;22.20;1.00;;;;;;5128981;27;34279;-76
2022/03/26 12:38:32;;;;;;;13.02;8.30;;;22.10;1.00;;;;;;5161429;27;36008;-76
2022/03/26 12:41:01;;;;;;;16.33;9.10;;;22.20;1.00;;;;;;5161045;27;34341;-75
2022/03/26 12:43:27;;;;;;;15.55;8.18;;;22.20;1.00;;;;;;5144183;27;34327;-76
2022/03/26 12:45:55;;;;;;;17.20;9.45;;;22.30;1.00;;;;;;5161383;27;34280;-75
2022/03/26 12:48:23;;;;;;;17.13;9.23;;;22.20;1.00;;;;;;5144935;27;35250;-76
2022/03/26 12:50:49;;;;;;;16.50;8.82;;;22.20;1.00;;;;;;5161047;27;34273;-75
2022/03/26 12:53:18;;;;;;;14.88;8.65;;;22.20;1.00;;;;;;5160320;27;34310;-76